createdAt,value
2022-09-09T00:02:24.792Z,14.16
2022-09-09T00:07:33.776Z,14.12
2022-09-09T00:12:40.504Z,14.08
2022-09-09T00:18:01.178Z,14.07
2022-09-09T00:23:10.571Z,14.07
2022-09-09T00:28:19.817Z,14.06
2022-09-09T00:33:24.901Z,14.03
2022-09-09T00:38:33.254Z,14.00
2022-09-09T00:43:41.348Z,14.01
2022-09-09T00:49:21.940Z,13.98
2022-09-09T00:54:43.048Z,13.92
2022-09-09T00:59:50.183Z,13.85
2022-09-09T01:04:51.976Z,13.79
2022-09-09T01:09:58.253Z,13.75
2022-09-09T01:15:12.766Z,13.72
2022-09-09T01:20:31.299Z,13.75
2022-09-09T01:25:45.522Z,13.73
2022-09-09T01:30:58.717Z,13.74
2022-09-09T01:36:09.251Z,13.75
2022-09-09T01:41:23.958Z,13.76
2022-09-09T01:46:34.534Z,13.75
2022-09-09T01:51:39.337Z,13.75
2022-09-09T01:57:05.057Z,13.78
2022-09-09T02:02:28.021Z,13.77
2022-09-09T02:08:29.420Z,13.73
2022-09-09T02:13:39.728Z,13.67
2022-09-09T02:19:27.446Z,13.62
2022-09-09T02:24:47.251Z,13.55
2022-09-09T02:29:57.807Z,13.52
2022-09-09T02:35:16.907Z,13.49
2022-09-09T02:40:23.794Z,13.43
2022-09-09T02:45:43.268Z,13.39
2022-09-09T02:50:57.027Z,13.37
2022-09-09T02:56:12.623Z,13.41
2022-09-09T03:01:18.451Z,13.44
2022-09-09T03:06:24.153Z,13.46
2022-09-09T03:11:36.711Z,13.44
2022-09-09T03:16:39.689Z,13.44
2022-09-09T03:21:46.423Z,13.44
2022-09-09T03:26:51.505Z,13.42
2022-09-09T03:31:55.868Z,13.41
2022-09-09T03:37:05.253Z,13.41
2022-09-09T03:42:13.414Z,13.41
2022-09-09T03:47:25.055Z,13.38
2022-09-09T03:52:35.131Z,13.35
2022-09-09T03:57:44.425Z,13.31
2022-09-09T04:02:46.803Z,13.25
2022-09-09T04:07:52.396Z,13.23
2022-09-09T04:12:57.154Z,13.22
2022-09-09T04:18:03.072Z,13.25
2022-09-09T04:23:10.498Z,13.27
2022-09-09T04:28:12.241Z,13.42
2022-09-09T04:33:18.279Z,13.39
2022-09-09T04:38:20.646Z,13.38
2022-09-09T04:43:23.457Z,13.38
2022-09-09T04:48:30.267Z,13.38
2022-09-09T04:53:32.417Z,13.36
2022-09-09T04:58:37.350Z,13.52
2022-09-09T05:03:40.434Z,13.64
2022-09-09T05:08:49.199Z,13.52
2022-09-09T05:13:59.496Z,13.48
2022-09-09T05:19:04.699Z,13.48
2022-09-09T05:24:21.051Z,13.50
2022-09-09T05:29:29.530Z,13.51
2022-09-09T05:34:40.382Z,13.55
2022-09-09T05:39:45.598Z,13.59
2022-09-09T05:44:55.354Z,13.61
2022-09-09T05:50:02.496Z,13.62
2022-09-09T05:55:05.594Z,13.62
2022-09-09T06:00:13.383Z,13.65
2022-09-09T06:05:28.353Z,13.71
2022-09-09T06:10:32.668Z,13.83
2022-09-09T06:15:36.911Z,13.88
2022-09-09T06:20:43.519Z,13.86
2022-09-09T06:25:47.824Z,13.88
2022-09-09T06:30:59.552Z,14.10
2022-09-09T06:36:03.021Z,14.22
2022-09-09T06:41:09.667Z,14.32
2022-09-09T06:46:23.445Z,14.31
2022-09-09T06:51:35.045Z,14.32
2022-09-09T06:56:42.903Z,14.29
2022-09-09T07:01:55.991Z,14.24
2022-09-09T07:06:59.920Z,14.23
2022-09-09T07:12:07.313Z,14.26
2022-09-09T07:17:14.158Z,14.29
2022-09-09T07:22:18.231Z,14.32
2022-09-09T07:27:22.861Z,14.39
2022-09-09T07:32:26.965Z,14.47
2022-09-09T07:37:31.158Z,14.56
2022-09-09T07:42:33.216Z,14.67
2022-09-09T07:47:38.566Z,14.78
2022-09-09T07:52:40.414Z,14.93
2022-09-09T07:57:45.415Z,15.09
2022-09-09T08:02:47.831Z,15.29
2022-09-09T08:07:49.731Z,15.50
2022-09-09T08:13:14.655Z,15.64
2022-09-09T08:18:15.740Z,15.75
2022-09-09T08:23:20.005Z,15.80
2022-09-09T08:28:22.873Z,15.87
2022-09-09T08:33:29.522Z,15.95
2022-09-09T08:38:31.504Z,15.99
2022-09-09T08:43:37.043Z,16.06
2022-09-09T08:48:48.565Z,16.14
2022-09-09T08:53:53.615Z,16.14
2022-09-09T08:59:03.743Z,16.31
2022-09-09T09:04:39.740Z,16.48
2022-09-09T09:09:47.838Z,16.63
2022-09-09T09:14:53.245Z,16.74
2022-09-09T09:20:00.723Z,16.92
2022-09-09T09:25:25.174Z,17.11
2022-09-09T09:30:53.571Z,17.23
2022-09-09T09:35:57.816Z,17.45
2022-09-09T09:41:02.940Z,17.94
2022-09-09T09:46:17.188Z,18.18
2022-09-09T09:51:22.062Z,18.17
2022-09-09T09:56:30.187Z,18.26
2022-09-09T10:01:36.506Z,18.41
2022-09-09T10:06:45.547Z,18.58
2022-09-09T10:12:10.573Z,18.74
2022-09-09T10:17:41.227Z,18.84
2022-09-09T10:23:07.216Z,19.23
2022-09-09T10:28:19.149Z,19.34
2022-09-09T10:33:37.195Z,19.46
2022-09-09T10:38:44.460Z,19.53
2022-09-09T10:44:08.188Z,19.54
2022-09-09T10:49:25.489Z,19.93
2022-09-09T10:54:36.087Z,19.98
2022-09-09T10:59:49.000Z,20.08
2022-09-09T11:04:55.295Z,20.12
2022-09-09T11:10:04.774Z,20.44
2022-09-09T11:15:24.990Z,20.80
2022-09-09T11:20:29.584Z,20.95
2022-09-09T11:25:41.730Z,21.18
2022-09-09T11:30:56.722Z,21.22
2022-09-09T11:36:32.339Z,21.38
2022-09-09T11:41:38.528Z,21.42
2022-09-09T11:46:42.351Z,21.66
2022-09-09T11:51:44.415Z,21.98
2022-09-09T11:56:57.600Z,22.30
2022-09-09T12:02:10.163Z,22.55
2022-09-09T12:07:35.505Z,22.87
2022-09-09T12:12:44.209Z,23.03
2022-09-09T12:17:51.563Z,22.23
2022-09-09T12:23:04.769Z,21.61
2022-09-09T12:28:28.879Z,21.13
2022-09-09T12:33:44.279Z,20.72
2022-09-09T12:38:48.916Z,19.50
2022-09-09T12:43:51.685Z,19.19
2022-09-09T12:48:55.364Z,19.13
2022-09-09T12:53:58.050Z,19.24
2022-09-09T12:59:02.242Z,19.21
2022-09-09T13:04:21.235Z,19.13
2022-09-09T13:09:25.674Z,19.03
2022-09-09T13:14:33.616Z,19.10
2022-09-09T13:19:39.890Z,19.16
2022-09-09T13:24:43.557Z,19.11
2022-09-09T13:29:53.420Z,19.10
2022-09-09T13:35:00.459Z,19.09
2022-09-09T13:40:08.019Z,19.10
2022-09-09T13:45:21.509Z,19.05
2022-09-09T13:50:27.357Z,18.97
2022-09-09T13:55:31.125Z,18.98
2022-09-09T14:00:35.852Z,18.97
2022-09-09T14:05:40.677Z,18.98
2022-09-09T14:10:45.187Z,18.91
2022-09-09T14:15:49.221Z,18.86
2022-09-09T14:20:51.358Z,18.80
2022-09-09T14:25:57.665Z,18.73
2022-09-09T14:31:04.938Z,18.63
2022-09-09T14:36:10.388Z,18.52
2022-09-09T14:41:23.619Z,18.39
2022-09-09T14:46:27.689Z,18.33
2022-09-09T14:51:30.831Z,18.26
2022-09-09T14:56:35.522Z,18.25
2022-09-09T15:01:37.270Z,18.25
2022-09-09T15:06:40.284Z,18.31
2022-09-09T15:11:45.380Z,18.51
2022-09-09T15:16:50.971Z,18.89
2022-09-09T15:21:52.679Z,19.72
2022-09-09T15:26:54.843Z,20.27
2022-09-09T15:32:00.133Z,21.73
2022-09-09T15:37:16.358Z,22.29
2022-09-09T15:42:18.108Z,21.87
2022-09-09T15:47:20.960Z,21.19
2022-09-09T15:52:24.835Z,20.78
2022-09-09T15:57:29.004Z,20.36
2022-09-09T16:02:31.814Z,20.06
2022-09-09T16:07:36.873Z,19.80
2022-09-09T16:12:42.978Z,19.56
2022-09-09T16:17:47.210Z,19.32
2022-09-09T16:22:48.934Z,19.17
2022-09-09T16:27:50.613Z,19.04
2022-09-09T16:32:54.377Z,18.86
2022-09-09T16:37:58.244Z,18.79
2022-09-09T16:43:02.338Z,18.72
2022-09-09T16:48:05.118Z,18.63
2022-09-09T16:53:10.700Z,18.51
2022-09-09T16:58:15.480Z,18.73
2022-09-09T17:03:17.644Z,18.37
2022-09-09T17:08:20.609Z,18.16
2022-09-09T17:13:23.282Z,17.92
2022-09-09T17:18:29.100Z,17.76
2022-09-09T17:23:35.744Z,17.63
2022-09-09T17:28:41.458Z,17.56
2022-09-09T17:33:48.960Z,17.50
2022-09-09T17:38:53.556Z,17.47
2022-09-09T17:43:58.212Z,17.42
2022-09-09T17:49:03.971Z,17.36
2022-09-09T17:54:10.074Z,17.29
2022-09-09T17:59:18.710Z,17.15
2022-09-09T18:04:23.591Z,17.09
2022-09-09T18:09:30.812Z,17.09
2022-09-09T18:14:35.106Z,17.10
2022-09-09T18:19:39.505Z,17.14
2022-09-09T18:24:48.146Z,17.18
2022-09-09T18:29:49.950Z,17.19
2022-09-09T18:34:55.585Z,17.21
2022-09-09T18:39:59.819Z,17.21
2022-09-09T18:45:02.645Z,17.18
2022-09-09T18:50:09.562Z,17.15
2022-09-09T18:55:13.656Z,17.14
2022-09-09T19:00:15.565Z,17.12
2022-09-09T19:05:20.134Z,17.06
2022-09-09T19:10:21.990Z,17.02
2022-09-09T19:15:24.651Z,16.94
2022-09-09T19:20:28.702Z,17.14
2022-09-09T19:25:37.473Z,16.87
2022-09-09T19:30:40.347Z,16.69
2022-09-09T19:35:42.085Z,16.54
2022-09-09T19:40:52.558Z,16.41
2022-09-09T19:46:02.532Z,16.34
2022-09-09T19:51:23.874Z,16.22
2022-09-09T19:56:33.016Z,16.11
2022-09-09T20:01:40.459Z,16.04
2022-09-09T20:06:44.132Z,16.00
2022-09-09T20:11:48.245Z,15.95
2022-09-09T20:16:54.809Z,15.88
2022-09-09T20:21:56.546Z,15.86
2022-09-09T20:27:07.211Z,15.84
2022-09-09T20:32:12.110Z,15.81
2022-09-09T20:37:17.650Z,15.78
2022-09-09T20:42:21.750Z,15.75
2022-09-09T20:47:26.523Z,15.67
2022-09-09T20:52:30.745Z,15.68
2022-09-09T20:57:38.330Z,15.66
2022-09-09T21:02:40.301Z,15.60
2022-09-09T21:07:42.602Z,15.53
2022-09-09T21:12:45.093Z,15.50
2022-09-09T21:17:46.793Z,15.43
2022-09-09T21:22:54.486Z,15.41
2022-09-09T21:27:59.968Z,15.39
2022-09-09T21:33:09.748Z,15.38
2022-09-09T21:38:17.393Z,15.31
2022-09-09T21:43:20.505Z,15.23
2022-09-09T21:48:23.799Z,15.19
2022-09-09T21:53:27.917Z,15.17
2022-09-09T21:58:32.160Z,15.16
2022-09-09T22:03:42.496Z,15.14
2022-09-09T22:08:47.227Z,15.17
2022-09-09T22:13:53.369Z,15.16
2022-09-09T22:18:59.360Z,15.16
2022-09-09T22:24:02.917Z,15.17
2022-09-09T22:29:12.142Z,15.16
2022-09-09T22:34:16.105Z,15.16
2022-09-09T22:39:17.768Z,15.18
2022-09-09T22:44:29.486Z,15.17
2022-09-09T22:49:34.105Z,15.13
2022-09-09T22:54:41.380Z,15.11
2022-09-09T22:59:43.121Z,15.08
2022-09-09T23:04:46.063Z,15.03
2022-09-09T23:09:51.077Z,15.00
2022-09-09T23:14:56.820Z,14.97
2022-09-09T23:20:04.902Z,14.94
2022-09-09T23:25:07.456Z,14.94
2022-09-09T23:30:11.080Z,14.90
2022-09-09T23:35:12.881Z,14.88
2022-09-09T23:40:22.966Z,14.86
2022-09-09T23:45:24.660Z,14.86
2022-09-09T23:50:32.341Z,14.89
2022-09-09T23:55:39.743Z,14.93
